createdAt,value
2023-03-02T00:00:34.917Z,9.80
2023-03-02T00:03:02.585Z,9.53
2023-03-02T00:05:30.082Z,12.00
2023-03-02T00:07:58.036Z,12.97
2023-03-02T00:10:25.688Z,12.57
2023-03-02T00:12:53.065Z,7.93
2023-03-02T00:15:20.219Z,9.93
2023-03-02T00:17:47.578Z,8.47
2023-03-02T00:20:14.854Z,9.37
2023-03-02T00:22:44.852Z,8.13
2023-03-02T00:25:13.245Z,9.83
2023-03-02T00:27:40.535Z,10.83
2023-03-02T00:30:08.133Z,10.07
2023-03-02T00:32:35.472Z,9.43
2023-03-02T00:35:03.074Z,10.07
2023-03-02T00:37:30.208Z,25.97
2023-03-02T00:39:57.389Z,11.30
2023-03-02T00:42:24.606Z,9.37
2023-03-02T00:44:53.496Z,9.87
2023-03-02T00:47:20.784Z,11.83
2023-03-02T00:49:49.509Z,10.27
2023-03-02T00:52:17.275Z,8.87
2023-03-02T00:54:44.425Z,10.53
2023-03-02T00:57:11.691Z,12.10
2023-03-02T00:59:39.566Z,9.90
2023-03-02T01:02:07.405Z,13.33
2023-03-02T01:04:39.651Z,10.93
2023-03-02T01:07:11.713Z,10.67
2023-03-02T01:09:39.948Z,9.80
2023-03-02T01:12:11.255Z,10.23
2023-03-02T01:14:39.712Z,8.70
2023-03-02T01:17:07.604Z,10.03
2023-03-02T01:19:34.932Z,10.33
2023-03-02T01:22:02.596Z,9.00
2023-03-02T01:24:29.818Z,11.20
2023-03-02T01:26:57.102Z,9.97
2023-03-02T01:29:24.313Z,9.80
2023-03-02T01:31:51.605Z,11.63
2023-03-02T01:34:18.925Z,11.90
2023-03-02T01:36:46.039Z,11.87
2023-03-02T01:39:17.065Z,11.87
2023-03-02T01:41:45.395Z,10.90
2023-03-02T01:44:31.219Z,9.67
2023-03-02T01:46:58.388Z,7.90
2023-03-02T01:49:25.720Z,8.30
2023-03-02T01:51:53.090Z,10.23
2023-03-02T01:54:23.429Z,10.13
2023-03-02T01:56:51.981Z,10.17
2023-03-02T01:59:22.124Z,9.70
2023-03-02T02:01:52.948Z,8.20
2023-03-02T02:04:21.378Z,10.37
2023-03-02T02:06:54.712Z,12.10
2023-03-02T02:09:23.731Z,9.97
2023-03-02T02:11:50.960Z,12.23
2023-03-02T02:14:18.133Z,10.90
2023-03-02T02:16:45.364Z,10.17
2023-03-02T02:19:15.295Z,11.53
2023-03-02T02:21:42.653Z,11.47
2023-03-02T02:24:12.673Z,8.47
2023-03-02T02:26:43.238Z,8.03
2023-03-02T02:29:22.569Z,10.80
2023-03-02T02:31:53.893Z,13.17
2023-03-02T02:34:23.298Z,12.73
2023-03-02T02:36:53.696Z,9.17
2023-03-02T02:39:29.313Z,16.97
2023-03-02T02:41:59.087Z,16.43
2023-03-02T02:44:26.272Z,13.47
2023-03-02T02:46:53.442Z,13.87
2023-03-02T02:49:23.741Z,8.67
2023-03-02T02:51:51.108Z,13.97
2023-03-02T02:54:18.860Z,11.73
2023-03-02T02:56:47.841Z,13.27
2023-03-02T02:59:20.370Z,10.47
2023-03-02T03:01:48.596Z,11.13
2023-03-02T03:04:21.035Z,11.00
2023-03-02T03:06:55.868Z,12.53
2023-03-02T03:09:23.349Z,14.00
2023-03-02T03:11:52.842Z,10.27
2023-03-02T03:14:22.310Z,10.73
2023-03-02T03:16:50.235Z,11.63
2023-03-02T03:19:20.021Z,9.00
2023-03-02T03:21:48.455Z,9.03
2023-03-02T03:24:15.599Z,10.30
2023-03-02T03:26:42.761Z,11.33
2023-03-02T03:29:10.314Z,10.33
2023-03-02T03:31:37.777Z,10.47
2023-03-02T03:34:05.226Z,10.53
2023-03-02T03:36:33.036Z,11.03
2023-03-02T03:39:00.684Z,11.20
2023-03-02T03:41:27.960Z,9.63
2023-03-02T03:43:55.456Z,8.63
2023-03-02T03:46:22.759Z,9.93
2023-03-02T03:48:50.085Z,12.67
2023-03-02T03:51:17.654Z,8.77
2023-03-02T03:53:44.795Z,13.63
2023-03-02T03:56:12.229Z,9.07
2023-03-02T03:58:39.489Z,11.90
2023-03-02T04:01:06.728Z,10.60
2023-03-02T04:03:33.894Z,12.23
2023-03-02T04:06:01.082Z,11.97
2023-03-02T04:08:28.250Z,12.57
2023-03-02T04:10:55.437Z,8.70
2023-03-02T04:13:22.621Z,12.50
2023-03-02T04:15:50.049Z,12.10
2023-03-02T04:18:17.214Z,11.67
2023-03-02T04:20:44.442Z,13.93
2023-03-02T04:23:11.778Z,11.80
2023-03-02T04:25:38.960Z,13.60
2023-03-02T04:28:06.295Z,11.50
2023-03-02T04:30:33.453Z,12.17
2023-03-02T04:33:00.636Z,12.37
2023-03-02T04:35:27.841Z,12.57
2023-03-02T04:37:55.046Z,9.97
2023-03-02T04:40:22.194Z,11.37
2023-03-02T04:42:49.336Z,11.13
2023-03-02T04:45:16.748Z,10.37
2023-03-02T04:47:43.957Z,9.57
2023-03-02T04:50:12.615Z,16.03
2023-03-02T04:52:39.956Z,8.40
2023-03-02T04:55:07.631Z,8.33
2023-03-02T04:57:34.805Z,11.53
2023-03-02T05:00:02.020Z,9.97
2023-03-02T05:02:29.211Z,11.50
2023-03-02T05:04:56.553Z,10.37
2023-03-02T05:07:23.895Z,10.07
2023-03-02T05:09:51.045Z,14.63
2023-03-02T05:12:19.255Z,7.30
2023-03-02T05:14:46.432Z,8.50
2023-03-02T05:17:13.641Z,10.53
2023-03-02T05:19:40.830Z,11.37
2023-03-02T05:22:08.006Z,10.20
2023-03-02T05:24:35.739Z,9.90
2023-03-02T05:27:02.914Z,10.10
2023-03-02T05:29:30.089Z,9.30
2023-03-02T05:31:57.677Z,9.43
2023-03-02T05:34:24.893Z,7.90
2023-03-02T05:36:52.214Z,8.23
2023-03-02T05:39:19.501Z,8.43
2023-03-02T05:41:46.721Z,11.67
2023-03-02T05:44:13.938Z,8.57
2023-03-02T05:46:43.872Z,10.23
2023-03-02T05:49:14.294Z,11.07
2023-03-02T05:51:41.433Z,10.40
2023-03-02T05:54:08.810Z,9.33
2023-03-02T05:56:36.058Z,12.17
2023-03-02T05:59:03.405Z,8.73
2023-03-02T06:01:30.758Z,12.47
2023-03-02T06:03:58.105Z,8.67
2023-03-02T06:06:25.445Z,11.53
2023-03-02T06:08:52.670Z,9.53
2023-03-02T06:11:19.860Z,12.47
2023-03-02T06:13:47.017Z,9.83
2023-03-02T06:16:14.287Z,12.70
2023-03-02T06:18:41.758Z,8.73
2023-03-02T06:21:08.984Z,10.43
2023-03-02T06:23:36.126Z,8.70
2023-03-02T06:26:09.416Z,13.67
2023-03-02T06:28:49.767Z,12.97
2023-03-02T06:31:18.462Z,10.37
2023-03-02T06:33:45.662Z,11.10
2023-03-02T06:36:12.958Z,9.20
2023-03-02T06:38:40.590Z,10.50
2023-03-02T06:41:07.767Z,10.30
2023-03-02T06:43:34.941Z,10.50
2023-03-02T06:46:02.317Z,8.60
2023-03-02T06:48:29.498Z,11.63
2023-03-02T06:50:56.625Z,10.70
2023-03-02T06:53:23.825Z,13.57
2023-03-02T06:55:51.491Z,11.90
2023-03-02T06:58:18.701Z,10.63
2023-03-02T07:00:45.969Z,11.47
2023-03-02T07:03:13.362Z,9.17
2023-03-02T07:05:40.726Z,16.07
2023-03-02T07:08:08.061Z,10.67
2023-03-02T07:10:35.735Z,13.17
2023-03-02T07:13:03.099Z,10.60
2023-03-02T07:15:30.355Z,10.53
2023-03-02T07:17:57.586Z,9.97
2023-03-02T07:20:24.740Z,10.13
2023-03-02T07:22:51.940Z,8.10
2023-03-02T07:25:19.071Z,10.83
2023-03-02T07:27:46.301Z,13.00
2023-03-02T07:30:14.925Z,12.10
2023-03-02T07:32:42.779Z,10.30
2023-03-02T07:35:10.304Z,10.00
2023-03-02T07:37:37.588Z,10.83
2023-03-02T07:40:05.952Z,10.63
2023-03-02T07:42:33.567Z,9.67
2023-03-02T07:45:00.713Z,11.87
2023-03-02T07:47:28.204Z,9.37
2023-03-02T07:52:41.534Z,9.23
2023-03-02T07:55:09.029Z,13.00
2023-03-02T07:57:36.171Z,10.83
2023-03-02T08:00:03.874Z,30.00
2023-03-02T08:02:33.618Z,11.63
2023-03-02T08:05:00.829Z,11.03
2023-03-02T08:07:27.984Z,12.97
2023-03-02T08:09:55.175Z,11.23
2023-03-02T08:12:23.356Z,9.30
2023-03-02T08:14:53.380Z,9.87
2023-03-02T08:17:20.589Z,10.83
2023-03-02T08:19:48.247Z,8.97
2023-03-02T08:22:15.562Z,10.67
2023-03-02T08:24:43.756Z,12.10
2023-03-02T08:27:14.875Z,9.13
2023-03-02T08:29:42.315Z,8.77
2023-03-02T08:32:09.740Z,7.83
2023-03-02T08:34:37.051Z,13.43
2023-03-02T08:37:04.317Z,9.70
2023-03-02T08:39:32.219Z,9.57
2023-03-02T08:41:59.556Z,10.03
2023-03-02T08:44:26.808Z,18.00
2023-03-02T08:46:55.069Z,10.73
2023-03-02T08:49:22.338Z,8.70
2023-03-02T08:51:53.432Z,8.53
2023-03-02T08:54:21.917Z,10.63
2023-03-02T08:56:50.159Z,9.57
2023-03-02T08:59:18.429Z,11.80
2023-03-02T09:01:45.949Z,8.73
2023-03-02T09:04:13.211Z,9.03
2023-03-02T09:06:41.880Z,10.77
2023-03-02T09:09:11.007Z,10.73
2023-03-02T09:11:38.304Z,10.03
2023-03-02T09:14:05.474Z,10.70
2023-03-02T09:16:32.652Z,10.73
2023-03-02T09:18:59.830Z,9.40
2023-03-02T09:21:26.970Z,9.77
2023-03-02T09:23:58.044Z,10.40
2023-03-02T09:26:26.336Z,8.67
2023-03-02T09:28:53.532Z,10.00
2023-03-02T09:31:20.901Z,7.93
2023-03-02T09:33:48.206Z,8.70
2023-03-02T09:36:19.811Z,9.63
2023-03-02T09:38:47.329Z,10.83
2023-03-02T09:41:20.513Z,8.90
2023-03-02T09:44:06.409Z,12.23
2023-03-02T09:46:44.314Z,9.30
2023-03-02T09:49:17.893Z,11.57
2023-03-02T09:51:56.724Z,10.60
2023-03-02T09:54:25.497Z,9.77
2023-03-02T09:56:57.721Z,8.40
2023-03-02T09:59:24.922Z,9.93
2023-03-02T10:01:54.933Z,9.17
2023-03-02T10:04:26.939Z,7.80
2023-03-02T10:06:57.374Z,10.50
2023-03-02T10:09:24.819Z,8.43
2023-03-02T10:12:10.400Z,9.10
2023-03-02T10:14:42.723Z,12.73
2023-03-02T10:17:12.656Z,12.43
2023-03-02T10:19:45.177Z,8.87
2023-03-02T10:22:33.462Z,11.63
2023-03-02T10:25:17.829Z,10.43
2023-03-02T10:27:51.070Z,38.70
2023-03-02T10:30:21.361Z,14.30
2023-03-02T10:32:50.117Z,12.33
2023-03-02T10:35:23.049Z,10.57
2023-03-02T10:37:58.991Z,13.47
2023-03-02T10:40:26.114Z,8.37
2023-03-02T10:42:54.002Z,9.80
2023-03-02T10:45:23.985Z,14.00
2023-03-02T10:48:00.666Z,9.90
2023-03-02T10:50:27.840Z,10.40
2023-03-02T10:53:00.268Z,13.60
2023-03-02T10:55:28.340Z,10.03
2023-03-02T10:58:01.505Z,15.07
2023-03-02T11:00:29.927Z,13.97
2023-03-02T11:03:17.953Z,10.80
2023-03-02T11:05:45.480Z,10.20
2023-03-02T11:08:19.265Z,11.07
2023-03-02T11:11:00.542Z,11.20
2023-03-02T11:13:33.509Z,10.53
2023-03-02T11:16:02.030Z,10.77
2023-03-02T11:18:38.332Z,11.27
2023-03-02T11:21:07.016Z,9.77
2023-03-02T11:23:46.006Z,9.23
2023-03-02T11:26:22.712Z,12.57
2023-03-02T11:29:01.608Z,8.50
2023-03-02T11:31:33.864Z,9.07
2023-03-02T11:34:18.362Z,7.20
2023-03-02T11:36:51.442Z,9.40
2023-03-02T11:39:22.520Z,8.02
2023-03-02T11:41:50.574Z,9.77
2023-03-02T11:44:19.413Z,9.35
2023-03-02T11:46:49.409Z,8.57
2023-03-02T11:49:22.107Z,11.65
2023-03-02T11:51:58.915Z,11.20
2023-03-02T11:54:36.655Z,11.00
2023-03-02T11:57:04.812Z,8.45
2023-03-02T11:59:34.036Z,9.55
2023-03-02T12:02:01.555Z,8.25
2023-03-02T12:04:33.975Z,9.18
2023-03-02T12:07:15.647Z,9.05
2023-03-02T12:09:42.909Z,7.55
2023-03-02T12:12:30.395Z,7.68
2023-03-02T12:14:57.228Z,12.60
2023-03-02T12:17:27.051Z,58.03
2023-03-02T12:20:09.037Z,17.30
2023-03-02T12:22:37.523Z,7.90
2023-03-02T12:25:23.932Z,9.82
2023-03-02T12:27:52.371Z,7.07
2023-03-02T12:30:23.728Z,8.13
2023-03-02T12:33:18.878Z,9.93
2023-03-02T12:35:46.682Z,9.05
2023-03-02T12:38:16.836Z,7.30
2023-03-02T12:40:49.819Z,7.53
2023-03-02T12:43:33.683Z,8.65
2023-03-02T12:46:04.006Z,8.50
2023-03-02T12:48:32.730Z,8.15
2023-03-02T12:51:04.362Z,9.10
2023-03-02T12:53:32.144Z,7.97
2023-03-02T12:55:59.370Z,7.13
2023-03-02T12:58:28.649Z,6.88
2023-03-02T13:00:57.395Z,8.95
2023-03-02T13:03:26.510Z,23.70
2023-03-02T13:06:10.815Z,8.68
2023-03-02T13:08:38.937Z,7.18
2023-03-02T13:11:06.128Z,7.68
2023-03-02T13:13:32.990Z,6.97
2023-03-02T13:16:19.140Z,9.18
2023-03-02T13:18:47.104Z,6.80
2023-03-02T13:21:14.977Z,7.82
2023-03-02T13:23:51.803Z,6.65
2023-03-02T13:26:30.906Z,7.82
2023-03-02T13:29:23.121Z,7.85
2023-03-02T13:31:50.214Z,7.35
2023-03-02T13:34:33.177Z,13.40
2023-03-02T13:36:59.992Z,11.05
2023-03-02T13:39:30.456Z,8.10
2023-03-02T13:42:02.358Z,7.15
2023-03-02T13:44:34.032Z,6.50
2023-03-02T13:47:02.091Z,7.05
2023-03-02T13:49:35.296Z,7.70
2023-03-02T13:52:08.412Z,33.10
2023-03-02T13:54:40.893Z,8.27
2023-03-02T13:57:15.119Z,7.53
2023-03-02T13:59:42.209Z,7.22
2023-03-02T14:02:25.444Z,6.85
2023-03-02T14:04:52.585Z,6.85
2023-03-02T14:07:20.721Z,14.80
2023-03-02T14:09:48.348Z,6.47
2023-03-02T14:12:28.642Z,8.35
2023-03-02T14:14:59.795Z,8.52
2023-03-02T14:17:26.913Z,7.72
2023-03-02T14:19:55.184Z,7.20
2023-03-02T14:22:23.759Z,7.35
2023-03-02T14:24:51.242Z,7.22
2023-03-02T14:27:18.911Z,8.02
2023-03-02T14:29:46.715Z,7.35
2023-03-02T14:32:15.150Z,6.35
2023-03-02T14:34:42.538Z,7.60
2023-03-02T14:37:18.137Z,7.50
2023-03-02T14:39:55.632Z,7.30
2023-03-02T14:42:23.257Z,8.48
2023-03-02T14:44:51.094Z,22.73
2023-03-02T14:47:19.523Z,10.27
2023-03-02T14:49:46.806Z,8.27
2023-03-02T14:52:42.541Z,8.77
2023-03-02T14:55:28.312Z,7.72
2023-03-02T14:58:04.931Z,8.90
2023-03-02T15:00:31.975Z,8.20
2023-03-02T15:02:59.882Z,7.95
2023-03-02T15:05:26.797Z,8.25
2023-03-02T15:07:58.808Z,9.32
2023-03-02T15:10:25.862Z,10.05
2023-03-02T15:12:52.723Z,10.63
2023-03-02T15:15:19.538Z,9.98
2023-03-02T15:17:46.309Z,9.27
2023-03-02T15:20:15.674Z,8.57
2023-03-02T15:22:42.594Z,9.00
2023-03-02T15:25:09.941Z,12.23
2023-03-02T15:27:36.693Z,8.65
2023-03-02T15:30:04.693Z,7.75
2023-03-02T15:32:31.508Z,8.18
2023-03-02T15:34:58.356Z,8.05
2023-03-02T15:37:25.104Z,10.50
2023-03-02T15:39:55.834Z,8.45
2023-03-02T15:42:24.010Z,11.63
2023-03-02T15:44:51.701Z,9.05
2023-03-02T15:47:18.585Z,10.27
2023-03-02T15:49:45.425Z,10.70
2023-03-02T15:52:12.954Z,10.50
2023-03-02T15:54:40.670Z,8.10
2023-03-02T15:57:07.714Z,8.45
2023-03-02T15:59:34.893Z,7.90
2023-03-02T16:02:02.525Z,8.32
2023-03-02T16:04:31.795Z,9.35
2023-03-02T16:06:59.137Z,8.68
2023-03-02T16:09:28.870Z,8.75
2023-03-02T16:11:56.211Z,8.93
2023-03-02T16:14:26.292Z,9.55
2023-03-02T16:16:53.314Z,10.10
2023-03-02T16:19:21.152Z,8.82
2023-03-02T16:21:49.012Z,9.52
2023-03-02T16:24:17.085Z,9.90
2023-03-02T16:26:44.779Z,24.90
2023-03-02T16:29:12.960Z,10.47
2023-03-02T16:31:40.777Z,12.07
2023-03-02T16:34:09.711Z,11.97
2023-03-02T16:36:38.165Z,10.10
2023-03-02T16:39:05.734Z,9.10
2023-03-02T16:41:32.980Z,8.77
2023-03-02T16:44:00.281Z,7.70
2023-03-02T16:46:28.939Z,8.53
2023-03-02T16:48:56.170Z,10.00
2023-03-02T16:51:23.361Z,10.80
2023-03-02T16:53:50.568Z,10.53
2023-03-02T16:56:17.887Z,10.30
2023-03-02T16:58:45.294Z,13.87
2023-03-02T17:01:13.750Z,69.20
2023-03-02T17:03:41.288Z,10.77
2023-03-02T17:06:10.046Z,13.30
2023-03-02T17:08:37.683Z,10.47
2023-03-02T17:11:05.209Z,12.37
2023-03-02T17:13:32.499Z,10.90
2023-03-02T17:15:59.873Z,14.33
2023-03-02T17:18:30.198Z,9.53
2023-03-02T17:20:58.671Z,12.63
2023-03-02T17:23:27.530Z,9.30
2023-03-02T17:25:56.048Z,10.37
2023-03-02T17:28:23.379Z,12.50
2023-03-02T17:30:50.618Z,9.90
2023-03-02T17:33:18.265Z,11.57
2023-03-02T17:35:46.256Z,11.37
2023-03-02T17:38:14.424Z,13.33
2023-03-02T17:40:41.803Z,13.33
2023-03-02T17:43:09.132Z,14.00
2023-03-02T17:45:36.339Z,15.37
2023-03-02T17:48:03.881Z,12.97
2023-03-02T17:50:31.867Z,15.87
2023-03-02T17:53:00.049Z,15.10
2023-03-02T17:55:27.354Z,15.43
2023-03-02T17:57:54.618Z,14.70
2023-03-02T18:00:22.840Z,16.80
2023-03-02T18:02:50.421Z,16.63
2023-03-02T18:05:17.776Z,17.17
2023-03-02T18:07:45.195Z,18.90
2023-03-02T18:10:13.096Z,17.50
2023-03-02T18:12:40.293Z,17.73
2023-03-02T18:15:07.999Z,19.40
2023-03-02T18:17:35.266Z,17.30
2023-03-02T18:20:02.414Z,17.97
2023-03-02T18:22:29.609Z,20.53
2023-03-02T18:24:57.074Z,18.17
2023-03-02T18:27:24.301Z,22.50
2023-03-02T18:29:51.588Z,18.73
2023-03-02T18:32:18.742Z,19.87
2023-03-02T18:34:45.966Z,16.70
2023-03-02T18:37:13.225Z,16.87
2023-03-02T18:39:43.651Z,15.07
2023-03-02T18:42:12.658Z,20.80
2023-03-02T18:44:40.106Z,20.63
2023-03-02T18:47:07.683Z,18.40
2023-03-02T18:49:34.927Z,16.17
2023-03-02T18:52:05.799Z,16.67
2023-03-02T18:54:33.457Z,23.93
2023-03-02T18:57:01.535Z,18.77
2023-03-02T18:59:29.009Z,16.87
2023-03-02T19:01:55.943Z,17.17
2023-03-02T19:04:26.377Z,17.63
2023-03-02T19:06:56.050Z,15.43
2023-03-02T19:09:23.564Z,21.70
2023-03-02T19:11:51.152Z,20.33
2023-03-02T19:14:18.791Z,18.83
2023-03-02T19:16:47.159Z,17.57
2023-03-02T19:19:14.312Z,17.63
2023-03-02T19:21:41.438Z,17.73
2023-03-02T19:24:08.748Z,17.37
2023-03-02T19:26:36.189Z,20.13
2023-03-02T19:29:03.557Z,17.70
2023-03-02T19:31:32.834Z,19.43
2023-03-02T19:34:00.311Z,17.90
2023-03-02T19:36:27.572Z,17.47
2023-03-02T19:38:54.951Z,16.50
2023-03-02T19:41:22.300Z,20.33
2023-03-02T19:43:49.656Z,18.57
2023-03-02T19:46:17.409Z,19.83
2023-03-02T19:48:44.394Z,18.57
2023-03-02T19:51:12.118Z,22.00
2023-03-02T19:53:40.442Z,19.10
2023-03-02T19:56:11.590Z,23.27
2023-03-02T19:58:46.958Z,23.20
2023-03-02T20:01:16.735Z,19.60
2023-03-02T20:03:46.246Z,19.07
2023-03-02T20:06:13.533Z,22.33
2023-03-02T20:08:40.705Z,19.33
2023-03-02T20:11:08.201Z,23.67
2023-03-02T20:13:35.770Z,19.67
2023-03-02T20:16:03.112Z,28.23
2023-03-02T20:18:30.878Z,21.47
2023-03-02T20:20:59.375Z,21.43
2023-03-02T20:23:26.920Z,27.17
2023-03-02T20:25:54.244Z,25.43
2023-03-02T20:28:23.572Z,22.87
2023-03-02T20:30:56.723Z,24.20
2023-03-02T20:33:34.345Z,22.37
2023-03-02T20:36:03.058Z,22.57
2023-03-02T20:38:37.968Z,25.70
2023-03-02T20:41:06.531Z,26.53
2023-03-02T20:43:33.618Z,23.37
2023-03-02T20:46:00.665Z,25.60
2023-03-02T20:48:28.168Z,22.90
2023-03-02T20:50:55.346Z,26.13
2023-03-02T20:53:23.073Z,28.17
2023-03-02T20:55:50.611Z,25.57
2023-03-02T20:58:18.279Z,27.90
2023-03-02T21:00:45.650Z,23.20
2023-03-02T21:03:13.085Z,30.73
2023-03-02T21:05:41.120Z,29.97
2023-03-02T21:08:09.937Z,28.93
2023-03-02T21:10:38.300Z,28.47
2023-03-02T21:13:07.664Z,27.93
2023-03-02T21:15:35.563Z,33.37
2023-03-02T21:18:02.883Z,32.93
2023-03-02T21:20:32.027Z,35.80
2023-03-02T21:23:00.174Z,37.73
2023-03-02T21:25:28.298Z,35.63
2023-03-02T21:27:56.269Z,41.07
2023-03-02T21:30:28.375Z,34.93
2023-03-02T21:32:55.647Z,33.87
2023-03-02T21:35:23.498Z,35.37
2023-03-02T21:37:53.647Z,34.50
2023-03-02T21:40:25.605Z,36.93
2023-03-02T21:42:52.816Z,39.93
2023-03-02T21:45:20.091Z,41.53
2023-03-02T21:47:47.692Z,35.50
2023-03-02T21:50:17.090Z,49.00
2023-03-02T21:52:44.406Z,43.63
2023-03-02T21:55:13.252Z,36.97
2023-03-02T21:57:40.900Z,43.00
2023-03-02T22:00:09.940Z,45.10
2023-03-02T22:02:37.663Z,43.90
2023-03-02T22:05:04.936Z,42.20
2023-03-02T22:07:32.380Z,42.63
2023-03-02T22:09:59.533Z,48.47
2023-03-02T22:12:26.950Z,48.00
2023-03-02T22:14:54.530Z,50.93
2023-03-02T22:17:24.961Z,53.10
2023-03-02T22:19:53.072Z,65.43
2023-03-02T22:22:27.594Z,70.37
2023-03-02T22:24:55.445Z,73.17
2023-03-02T22:27:26.841Z,76.43
2023-03-02T22:29:56.614Z,82.03
2023-03-02T22:32:25.822Z,75.67
2023-03-02T22:34:54.339Z,95.93
2023-03-02T22:37:26.113Z,71.53
2023-03-02T22:39:55.178Z,81.80
2023-03-02T22:42:23.992Z,77.20
2023-03-02T22:45:02.581Z,76.83
2023-03-02T22:47:29.964Z,73.57
2023-03-02T22:50:02.316Z,75.93
2023-03-02T22:52:35.719Z,82.83
2023-03-02T22:55:03.659Z,98.67
2023-03-02T22:57:32.577Z,94.00
2023-03-02T23:00:11.738Z,101.57
2023-03-02T23:02:41.206Z,97.33
2023-03-02T23:05:27.423Z,100.97
2023-03-02T23:08:00.267Z,90.07
2023-03-02T23:10:27.453Z,85.47
2023-03-02T23:12:54.606Z,93.00
2023-03-02T23:15:21.927Z,97.93
2023-03-02T23:17:49.184Z,104.37
2023-03-02T23:20:16.499Z,97.57
2023-03-02T23:22:44.476Z,93.40
2023-03-02T23:25:11.902Z,94.87
2023-03-02T23:27:39.139Z,97.50
2023-03-02T23:30:06.694Z,105.50
2023-03-02T23:32:33.896Z,105.43
2023-03-02T23:35:01.067Z,99.63
2023-03-02T23:37:29.040Z,105.07
2023-03-02T23:39:56.163Z,96.47
2023-03-02T23:42:23.307Z,102.67
2023-03-02T23:44:50.482Z,98.00
2023-03-02T23:47:17.640Z,96.37
2023-03-02T23:49:44.738Z,94.03
2023-03-02T23:52:11.929Z,97.70
2023-03-02T23:54:39.147Z,87.40
2023-03-02T23:57:06.403Z,91.53
2023-03-02T23:59:33.603Z,84.87
